createdAt,value
2023-03-20T00:01:26.543Z,7.50
2023-03-20T00:03:53.032Z,6.87
2023-03-20T00:06:22.242Z,6.33
2023-03-20T00:08:51.760Z,6.87
2023-03-20T00:11:29.131Z,5.90
2023-03-20T00:14:07.777Z,7.37
2023-03-20T00:16:39.866Z,5.50
2023-03-20T00:19:14.296Z,7.03
2023-03-20T00:21:40.951Z,6.67
2023-03-20T00:24:08.125Z,7.10
2023-03-20T00:26:36.910Z,7.40
2023-03-20T00:29:05.148Z,5.80
2023-03-20T00:31:34.513Z,7.00
2023-03-20T00:34:03.624Z,6.37
2023-03-20T00:36:30.062Z,7.70
2023-03-20T00:38:57.877Z,8.83
2023-03-20T00:41:41.627Z,7.07
2023-03-20T00:44:31.899Z,6.77
2023-03-20T00:47:00.925Z,6.10
2023-03-20T00:49:33.340Z,6.13
2023-03-20T00:52:01.525Z,6.87
2023-03-20T00:54:28.256Z,6.73
2023-03-20T00:56:59.779Z,7.17
2023-03-20T00:59:31.194Z,9.90
2023-03-20T01:01:59.332Z,6.77
2023-03-20T01:04:34.289Z,4.97
2023-03-20T01:07:00.772Z,6.77
2023-03-20T01:09:27.203Z,6.07
2023-03-20T01:11:54.151Z,6.70
2023-03-20T01:14:20.570Z,6.57
2023-03-20T01:16:47.009Z,6.27
2023-03-20T01:19:16.778Z,5.93
2023-03-20T01:21:43.555Z,6.83
2023-03-20T01:24:10.073Z,5.73
2023-03-20T01:26:39.223Z,6.20
2023-03-20T01:29:24.438Z,6.80
2023-03-20T01:31:52.440Z,5.37
2023-03-20T01:34:20.916Z,5.90
2023-03-20T01:36:51.495Z,5.17
2023-03-20T01:39:19.245Z,5.53
2023-03-20T01:41:47.156Z,6.87
2023-03-20T01:44:21.167Z,5.63
2023-03-20T01:46:48.808Z,6.80
2023-03-20T01:49:21.227Z,7.40
2023-03-20T01:51:48.924Z,6.37
2023-03-20T01:54:22.987Z,6.30
2023-03-20T01:56:57.117Z,5.37
2023-03-20T01:59:31.682Z,7.33
2023-03-20T02:02:00.301Z,6.53
2023-03-20T02:04:31.208Z,5.70
2023-03-20T02:06:57.769Z,6.53
2023-03-20T02:09:24.169Z,6.63
2023-03-20T02:11:52.293Z,4.63
2023-03-20T02:14:20.045Z,6.87
2023-03-20T02:16:47.705Z,5.63
2023-03-20T02:19:29.341Z,5.63
2023-03-20T02:22:30.596Z,7.07
2023-03-20T02:25:06.983Z,5.67
2023-03-20T02:27:42.996Z,6.60
2023-03-20T02:30:29.300Z,7.17
2023-03-20T02:33:17.344Z,6.30
2023-03-20T02:36:05.298Z,4.87
2023-03-20T02:38:40.808Z,6.30
2023-03-20T02:41:21.981Z,5.37
2023-03-20T02:43:59.513Z,6.40
2023-03-20T02:46:46.194Z,5.70
2023-03-20T02:49:42.886Z,5.97
2023-03-20T02:52:34.414Z,7.23
2023-03-20T02:55:09.217Z,7.10
2023-03-20T02:57:53.929Z,5.63
2023-03-20T03:00:36.607Z,7.97
2023-03-20T03:03:08.849Z,6.53
2023-03-20T03:05:45.505Z,7.00
2023-03-20T03:08:14.471Z,6.93
2023-03-20T03:10:57.411Z,7.30
2023-03-20T03:13:29.346Z,7.00
2023-03-20T03:16:03.148Z,9.27
2023-03-20T03:18:32.181Z,7.93
2023-03-20T03:21:02.367Z,7.93
2023-03-20T03:23:37.659Z,7.00
2023-03-20T03:26:06.736Z,7.37
2023-03-20T03:28:39.320Z,6.93
2023-03-20T03:31:08.386Z,6.23
2023-03-20T03:33:39.837Z,6.43
2023-03-20T03:36:17.191Z,7.07
2023-03-20T03:38:52.693Z,6.67
2023-03-20T03:41:38.059Z,6.67
2023-03-20T03:44:26.362Z,6.87
2023-03-20T03:47:18.205Z,6.53
2023-03-20T03:49:55.726Z,7.73
2023-03-20T03:52:24.946Z,8.77
2023-03-20T03:54:57.777Z,8.17
2023-03-20T03:57:34.167Z,6.97
2023-03-20T04:00:03.263Z,6.73
2023-03-20T04:02:30.515Z,6.93
2023-03-20T04:04:58.310Z,8.23
2023-03-20T04:07:27.680Z,6.90
2023-03-20T04:09:54.522Z,8.30
2023-03-20T04:12:43.806Z,6.63
2023-03-20T04:15:14.567Z,8.37
2023-03-20T04:17:40.941Z,6.37
2023-03-20T04:20:08.943Z,7.73
2023-03-20T04:22:35.598Z,7.20
2023-03-20T04:25:04.018Z,7.00
2023-03-20T04:27:30.398Z,5.67
2023-03-20T04:29:56.828Z,7.70
2023-03-20T04:32:23.573Z,5.87
2023-03-20T04:34:49.960Z,8.50
2023-03-20T04:37:16.330Z,5.97
2023-03-20T04:39:42.986Z,6.67
2023-03-20T04:42:09.695Z,7.10
2023-03-20T04:44:36.184Z,6.03
2023-03-20T04:47:02.569Z,6.90
2023-03-20T04:49:28.960Z,7.20
2023-03-20T04:51:56.134Z,6.23
2023-03-20T04:54:22.549Z,7.10
2023-03-20T04:56:48.959Z,7.07
2023-03-20T04:59:15.745Z,5.80
2023-03-20T05:01:42.182Z,7.20
2023-03-20T05:04:08.773Z,6.63
2023-03-20T05:06:35.332Z,6.77
2023-03-20T05:09:01.838Z,7.07
2023-03-20T05:11:28.891Z,7.83
2023-03-20T05:13:55.336Z,9.47
2023-03-20T05:16:21.850Z,8.97
2023-03-20T05:18:48.253Z,8.07
2023-03-20T05:21:15.055Z,8.93
2023-03-20T05:23:41.749Z,8.93
2023-03-20T05:26:08.109Z,8.13
2023-03-20T05:28:34.685Z,9.57
2023-03-20T05:31:01.137Z,7.90
2023-03-20T05:33:27.621Z,6.90
2023-03-20T05:35:54.062Z,10.47
2023-03-20T05:38:22.727Z,10.03
2023-03-20T05:40:49.879Z,13.37
2023-03-20T05:43:16.448Z,9.00
2023-03-20T05:45:43.264Z,10.70
2023-03-20T05:48:09.657Z,9.33
2023-03-20T05:50:36.129Z,12.77
2023-03-20T05:53:02.642Z,12.33
2023-03-20T05:55:29.006Z,10.47
2023-03-20T05:57:55.404Z,10.70
2023-03-20T06:00:22.238Z,9.67
2023-03-20T06:02:48.760Z,10.10
2023-03-20T06:05:15.231Z,8.83
2023-03-20T06:07:41.615Z,9.23
2023-03-20T06:10:09.083Z,8.37
2023-03-20T06:12:35.646Z,9.57
2023-03-20T06:15:02.204Z,8.77
2023-03-20T06:17:29.084Z,9.40
2023-03-20T06:19:55.529Z,9.13
2023-03-20T06:22:21.927Z,10.50
2023-03-20T06:24:48.831Z,8.77
2023-03-20T06:27:15.846Z,11.93
2023-03-20T06:29:42.496Z,9.40
2023-03-20T06:32:10.754Z,11.80
2023-03-20T06:34:37.536Z,11.73
2023-03-20T06:37:03.927Z,8.90
2023-03-20T06:39:30.398Z,11.70
2023-03-20T06:41:57.057Z,8.67
2023-03-20T06:44:23.526Z,9.63
2023-03-20T06:46:50.470Z,10.17
2023-03-20T06:49:17.001Z,8.77
2023-03-20T06:51:43.584Z,10.73
2023-03-20T06:54:09.947Z,8.87
2023-03-20T06:56:36.911Z,9.60
2023-03-20T06:59:03.290Z,13.53
2023-03-20T07:01:29.909Z,11.13
2023-03-20T07:03:56.878Z,12.77
2023-03-20T07:06:23.387Z,12.10
2023-03-20T07:08:51.864Z,11.23
2023-03-20T07:11:18.649Z,12.07
2023-03-20T07:13:47.425Z,10.90
2023-03-20T07:16:15.230Z,11.57
2023-03-20T07:18:41.672Z,11.10
2023-03-20T07:21:08.209Z,9.07
2023-03-20T07:23:35.423Z,9.60
2023-03-20T07:26:01.863Z,9.40
2023-03-20T07:28:28.606Z,12.17
2023-03-20T07:30:55.261Z,7.97
2023-03-20T07:33:21.784Z,11.07
2023-03-20T07:35:52.690Z,9.87
2023-03-20T07:38:19.294Z,9.87
2023-03-20T07:40:45.703Z,8.30
2023-03-20T07:43:12.321Z,8.57
2023-03-20T07:45:39.031Z,9.57
2023-03-20T07:48:05.854Z,8.83
2023-03-20T07:50:32.330Z,9.67
2023-03-20T07:52:58.988Z,7.97
2023-03-20T07:55:25.549Z,11.13
2023-03-20T07:57:52.167Z,9.67
2023-03-20T08:00:20.268Z,9.93
2023-03-20T08:02:47.086Z,8.13
2023-03-20T08:05:13.618Z,10.07
2023-03-20T08:07:40.271Z,8.13
2023-03-20T08:10:07.240Z,7.77
2023-03-20T08:12:33.869Z,7.43
2023-03-20T08:15:00.264Z,9.37
2023-03-20T08:17:26.724Z,7.37
2023-03-20T08:19:53.150Z,9.57
2023-03-20T08:22:20.017Z,6.50
2023-03-20T08:24:46.429Z,6.40
2023-03-20T08:27:12.813Z,6.90
2023-03-20T08:29:39.227Z,6.80
2023-03-20T08:32:06.145Z,7.50
2023-03-20T08:34:33.739Z,6.13
2023-03-20T08:37:00.531Z,8.00
2023-03-20T08:39:27.302Z,7.90
2023-03-20T08:41:53.868Z,6.07
2023-03-20T08:44:20.364Z,13.43
2023-03-20T08:46:47.407Z,6.53
2023-03-20T08:49:14.522Z,6.87
2023-03-20T08:51:41.125Z,5.87
2023-03-20T08:54:07.950Z,5.67
2023-03-20T08:56:34.324Z,6.03
2023-03-20T08:59:01.063Z,6.77
2023-03-20T09:01:41.826Z,4.90
2023-03-20T09:04:14.681Z,8.00
2023-03-20T09:06:41.742Z,5.53
2023-03-20T09:09:08.122Z,5.30
2023-03-20T09:11:34.560Z,6.20
2023-03-20T09:14:01.144Z,5.90
2023-03-20T09:16:28.116Z,6.03
2023-03-20T09:18:55.052Z,4.93
2023-03-20T09:21:21.483Z,5.87
2023-03-20T09:23:47.874Z,5.47
2023-03-20T09:26:14.288Z,6.93
2023-03-20T09:28:40.863Z,6.63
2023-03-20T09:31:07.326Z,6.00
2023-03-20T09:33:33.796Z,4.47
2023-03-20T09:36:00.593Z,4.60
2023-03-20T09:38:27.488Z,4.83
2023-03-20T09:40:57.344Z,6.20
2023-03-20T09:43:43.542Z,4.60
2023-03-20T09:46:28.680Z,5.63
2023-03-20T09:49:07.974Z,5.17
2023-03-20T09:51:55.264Z,5.67
2023-03-20T09:54:32.378Z,4.17
2023-03-20T09:57:03.351Z,5.00
2023-03-20T09:59:33.252Z,5.70
2023-03-20T10:02:06.070Z,4.80
2023-03-20T10:04:33.356Z,4.43
2023-03-20T10:07:00.123Z,5.67
2023-03-20T10:09:31.662Z,4.20
2023-03-20T10:12:30.991Z,3.80
2023-03-20T10:15:02.030Z,3.30
2023-03-20T10:17:35.299Z,2.93
2023-03-20T10:20:23.101Z,4.93
2023-03-20T10:22:56.228Z,3.30
2023-03-20T10:25:31.115Z,5.57
2023-03-20T10:28:00.860Z,3.23
2023-03-20T10:30:36.793Z,3.40
2023-03-20T10:33:25.388Z,2.90
2023-03-20T10:36:19.717Z,3.40
2023-03-20T10:38:50.722Z,5.90
2023-03-20T10:41:21.662Z,3.93
2023-03-20T10:43:51.117Z,3.43
2023-03-20T10:46:28.928Z,4.70
2023-03-20T10:49:17.842Z,3.43
2023-03-20T10:51:58.053Z,2.70
2023-03-20T10:54:30.285Z,2.60
2023-03-20T10:57:01.954Z,2.70
2023-03-20T10:59:33.565Z,1.80
2023-03-20T11:02:00.275Z,1.87
2023-03-20T11:04:27.579Z,1.90
2023-03-20T11:07:02.712Z,1.63
2023-03-20T11:09:33.492Z,2.90
2023-03-20T11:12:02.120Z,3.13
2023-03-20T11:14:39.578Z,2.20
2023-03-20T11:17:06.652Z,2.17
2023-03-20T11:19:36.212Z,2.27
2023-03-20T11:22:24.311Z,3.07
2023-03-20T11:24:54.982Z,2.47
2023-03-20T11:27:29.738Z,2.20
2023-03-20T11:29:58.597Z,2.27
2023-03-20T11:32:34.739Z,2.63
2023-03-20T11:35:19.302Z,3.23
2023-03-20T11:37:48.196Z,2.20
2023-03-20T11:40:25.221Z,2.23
2023-03-20T11:43:04.052Z,2.13
2023-03-20T11:45:38.546Z,2.30
2023-03-20T11:48:06.731Z,2.53
2023-03-20T11:50:36.352Z,2.57
2023-03-20T11:53:18.353Z,2.00
2023-03-20T11:55:57.967Z,2.33
2023-03-20T11:58:25.389Z,3.40
2023-03-20T12:00:55.108Z,3.33
2023-03-20T12:03:43.464Z,1.70
2023-03-20T12:06:27.304Z,2.00
2023-03-20T12:09:05.999Z,2.87
2023-03-20T12:11:54.425Z,3.13
2023-03-20T12:14:28.107Z,3.23
2023-03-20T12:17:04.881Z,2.30
2023-03-20T12:19:33.263Z,1.93
2023-03-20T12:22:08.530Z,1.30
2023-03-20T12:24:46.109Z,2.70
2023-03-20T12:27:23.565Z,1.47
2023-03-20T12:30:04.179Z,4.20
2023-03-20T12:32:42.208Z,3.73
2023-03-20T12:35:33.553Z,1.93
2023-03-20T12:38:00.100Z,2.03
2023-03-20T12:40:46.103Z,3.60
2023-03-20T12:43:16.425Z,1.80
2023-03-20T12:46:11.647Z,1.67
2023-03-20T12:48:52.640Z,1.93
2023-03-20T12:51:35.702Z,2.70
2023-03-20T12:54:32.916Z,1.87
2023-03-20T12:57:28.825Z,1.47
2023-03-20T13:00:23.895Z,1.60
2023-03-20T13:03:13.256Z,1.87
2023-03-20T13:05:55.815Z,2.00
2023-03-20T13:08:43.388Z,1.67
2023-03-20T13:11:28.989Z,1.67
2023-03-20T13:14:14.176Z,2.17
2023-03-20T13:16:52.355Z,1.90
2023-03-20T13:19:42.138Z,1.80
2023-03-20T13:22:17.984Z,1.87
2023-03-20T13:25:01.734Z,2.17
2023-03-20T13:27:42.899Z,2.27
2023-03-20T13:30:15.600Z,2.40
2023-03-20T13:32:58.548Z,1.97
2023-03-20T13:35:43.683Z,1.77
2023-03-20T13:38:18.896Z,1.90
2023-03-20T13:40:47.255Z,2.07
2023-03-20T13:43:33.648Z,3.67
2023-03-20T13:46:14.715Z,1.80
2023-03-20T13:48:42.967Z,2.57
2023-03-20T13:51:26.506Z,1.43
2023-03-20T13:54:23.343Z,1.50
2023-03-20T13:57:01.640Z,1.57
2023-03-20T13:59:37.507Z,1.63
2023-03-20T14:02:17.874Z,1.70
2023-03-20T14:04:44.653Z,2.10
2023-03-20T14:07:35.900Z,1.90
2023-03-20T14:10:20.937Z,1.60
2023-03-20T14:12:55.367Z,3.23
2023-03-20T14:15:26.873Z,1.90
2023-03-20T14:17:53.520Z,2.50
2023-03-20T14:20:32.725Z,2.40
2023-03-20T14:22:59.686Z,2.47
2023-03-20T14:25:29.236Z,3.10
2023-03-20T14:27:57.061Z,2.03
2023-03-20T14:30:29.535Z,2.10
2023-03-20T14:33:14.983Z,1.70
2023-03-20T14:36:09.071Z,1.77
2023-03-20T14:38:44.507Z,2.60
2023-03-20T14:41:30.699Z,2.27
2023-03-20T14:44:19.742Z,3.03
2023-03-20T14:46:58.890Z,1.43
2023-03-20T14:49:43.791Z,2.77
2023-03-20T14:52:37.191Z,1.50
2023-03-20T14:55:22.401Z,2.30
2023-03-20T14:57:56.604Z,1.83
2023-03-20T15:00:25.935Z,1.93
2023-03-20T15:03:06.396Z,1.93
2023-03-20T15:05:36.009Z,1.60
2023-03-20T15:08:10.247Z,1.63
2023-03-20T15:10:45.534Z,1.43
2023-03-20T15:13:14.500Z,3.77
2023-03-20T15:15:58.957Z,3.03
2023-03-20T15:18:27.535Z,2.13
2023-03-20T15:20:57.898Z,2.93
2023-03-20T15:23:26.270Z,3.33
2023-03-20T15:25:53.004Z,1.67
2023-03-20T15:28:27.637Z,2.20
2023-03-20T15:30:58.858Z,2.07
2023-03-20T15:33:35.279Z,2.40
2023-03-20T15:36:36.926Z,1.60
2023-03-20T15:39:16.944Z,2.30
2023-03-20T15:41:52.397Z,1.37
2023-03-20T15:44:25.144Z,5.17
2023-03-20T15:46:52.622Z,2.53
2023-03-20T15:49:20.705Z,2.70
2023-03-20T15:51:48.213Z,1.67
2023-03-20T15:54:17.408Z,2.40
2023-03-20T15:56:46.443Z,1.80
2023-03-20T15:59:17.387Z,2.97
2023-03-20T16:01:46.506Z,2.23
2023-03-20T16:04:17.037Z,1.90
2023-03-20T16:06:55.816Z,3.37
2023-03-20T16:09:23.551Z,2.30
2023-03-20T16:12:00.126Z,1.60
2023-03-20T16:14:31.490Z,2.13
2023-03-20T16:17:00.066Z,5.03
2023-03-20T16:19:27.876Z,3.53
2023-03-20T16:21:58.303Z,6.40
2023-03-20T16:24:29.087Z,2.63
2023-03-20T16:26:57.323Z,1.67
2023-03-20T16:29:27.284Z,2.60
2023-03-20T16:32:06.978Z,2.23
2023-03-20T16:34:36.526Z,3.23
2023-03-20T16:37:08.449Z,3.33
2023-03-20T16:39:34.996Z,4.83
2023-03-20T16:42:24.841Z,2.23
2023-03-20T16:44:56.182Z,2.37
2023-03-20T16:47:36.570Z,2.67
2023-03-20T16:50:17.390Z,1.70
2023-03-20T16:52:56.030Z,1.30
2023-03-20T16:55:31.809Z,2.03
2023-03-20T16:58:05.471Z,1.70
2023-03-20T17:00:42.226Z,1.97
2023-03-20T17:03:16.503Z,1.50
2023-03-20T17:05:58.739Z,3.00
2023-03-20T17:08:37.505Z,2.60
2023-03-20T17:11:13.013Z,2.83
2023-03-20T17:13:41.871Z,2.33
2023-03-20T17:16:16.619Z,2.77
2023-03-20T17:18:46.392Z,3.97
2023-03-20T17:21:13.545Z,2.67
2023-03-20T17:23:40.873Z,2.63
2023-03-20T17:26:12.765Z,3.13
2023-03-20T17:28:39.592Z,5.77
2023-03-20T17:31:06.880Z,3.43
2023-03-20T17:33:33.855Z,3.23
2023-03-20T17:36:01.176Z,4.87
2023-03-20T17:38:27.725Z,3.77
2023-03-20T17:40:54.467Z,4.23
2023-03-20T17:43:21.010Z,4.03
2023-03-20T17:45:48.569Z,2.50
2023-03-20T17:48:18.144Z,2.20
2023-03-20T17:50:46.244Z,4.53
2023-03-20T17:53:16.123Z,6.13
2023-03-20T17:55:42.703Z,3.47
2023-03-20T17:58:14.999Z,7.23
2023-03-20T18:00:41.633Z,2.83
2023-03-20T18:03:08.112Z,4.00
2023-03-20T18:05:39.376Z,4.27
2023-03-20T18:08:12.503Z,2.60
2023-03-20T18:10:39.270Z,3.03
2023-03-20T18:13:05.941Z,3.30
2023-03-20T18:15:32.519Z,2.40
2023-03-20T18:17:59.255Z,4.67
2023-03-20T18:20:32.329Z,4.87
2023-03-20T18:22:59.196Z,3.23
2023-03-20T18:25:26.239Z,3.10
2023-03-20T18:27:56.837Z,2.73
2023-03-20T18:30:29.771Z,4.37
2023-03-20T18:32:56.271Z,4.00
2023-03-20T18:35:22.839Z,3.13
2023-03-20T18:37:49.292Z,3.27
2023-03-20T18:40:22.288Z,3.33
2023-03-20T18:42:48.856Z,5.07
2023-03-20T18:45:15.507Z,4.37
2023-03-20T18:47:42.033Z,4.27
2023-03-20T18:50:26.679Z,4.23
2023-03-20T18:52:55.303Z,3.47
2023-03-20T18:55:23.188Z,5.90
2023-03-20T18:57:50.680Z,2.93
2023-03-20T19:00:21.879Z,3.30
2023-03-20T19:02:49.788Z,3.97
2023-03-20T19:05:17.454Z,4.13
2023-03-20T19:07:43.874Z,3.37
2023-03-20T19:10:25.695Z,3.13
2023-03-20T19:12:53.592Z,4.10
2023-03-20T19:15:21.257Z,3.83
2023-03-20T19:17:47.851Z,6.63
2023-03-20T19:20:26.680Z,5.40
2023-03-20T19:22:53.168Z,4.67
2023-03-20T19:25:19.593Z,5.43
2023-03-20T19:27:46.434Z,6.00
2023-03-20T19:30:30.053Z,4.90
2023-03-20T19:32:56.805Z,5.57
2023-03-20T19:38:15.522Z,4.07
2023-03-20T19:40:47.240Z,4.63
2023-03-20T19:43:15.582Z,4.23
2023-03-20T19:45:43.887Z,4.23
2023-03-20T19:48:18.971Z,5.27
2023-03-20T19:50:47.420Z,4.67
2023-03-20T19:53:16.918Z,4.43
2023-03-20T19:55:44.296Z,3.93
2023-03-20T19:58:11.056Z,3.63
2023-03-20T20:00:56.834Z,5.00
2023-03-20T20:03:25.879Z,4.30
2023-03-20T20:05:53.582Z,4.83
2023-03-20T20:08:31.010Z,6.57
2023-03-20T20:11:06.954Z,4.97
2023-03-20T20:13:34.491Z,5.47
2023-03-20T20:16:01.487Z,5.87
2023-03-20T20:18:28.982Z,7.07
2023-03-20T20:22:06.333Z,5.50
2023-03-20T20:23:45.396Z,5.87
2023-03-20T20:26:11.910Z,6.43
2023-03-20T20:28:38.406Z,7.10
2023-03-20T20:31:04.943Z,6.47
2023-03-20T20:33:34.509Z,6.20
2023-03-20T20:36:52.719Z,7.30
2023-03-20T20:38:56.034Z,6.63
2023-03-20T20:41:22.722Z,6.40
2023-03-20T20:44:14.723Z,5.70
2023-03-20T20:46:35.623Z,7.37
2023-03-20T20:49:18.055Z,6.13
2023-03-20T20:51:45.230Z,7.03
2023-03-20T20:54:11.825Z,7.53
2023-03-20T20:56:38.360Z,6.80
2023-03-20T20:59:04.828Z,7.73
2023-03-20T21:01:31.396Z,7.53
2023-03-20T21:03:57.885Z,7.67
2023-03-20T21:06:38.660Z,6.87
2023-03-20T21:09:10.967Z,6.87
2023-03-20T21:11:37.871Z,6.83
2023-03-20T21:14:04.423Z,7.10
2023-03-20T21:16:31.198Z,6.67
2023-03-20T21:18:58.692Z,7.57
2023-03-20T21:21:25.385Z,9.20
2023-03-20T21:23:52.087Z,9.60
2023-03-20T21:26:18.709Z,9.67
2023-03-20T21:28:46.082Z,8.07
2023-03-20T21:31:26.570Z,8.53
2023-03-20T21:33:55.033Z,9.33
2023-03-20T21:36:23.438Z,9.50
2023-03-20T21:39:08.714Z,9.50
2023-03-20T21:41:40.836Z,10.13
2023-03-20T21:44:08.445Z,10.73
2023-03-20T22:03:44.004Z,9.60
2023-03-20T22:09:48.511Z,9.97
2023-03-20T22:15:16.400Z,10.43
2023-03-20T22:45:10.377Z,8.73
2023-03-20T22:47:37.450Z,9.40
2023-03-20T22:50:04.500Z,10.33
2023-03-20T22:52:45.878Z,10.77
2023-03-20T22:55:16.759Z,11.10
2023-03-20T22:57:52.936Z,9.50
2023-03-20T23:00:26.911Z,10.50
2023-03-20T23:02:57.466Z,13.07
2023-03-20T23:05:27.037Z,8.23
2023-03-20T23:07:53.520Z,11.43
2023-03-20T23:10:19.944Z,8.93
2023-03-20T23:12:46.381Z,9.93
2023-03-20T23:15:13.057Z,8.27
2023-03-20T23:17:39.478Z,8.30
2023-03-20T23:20:12.347Z,8.80
2023-03-20T23:22:40.647Z,8.30
2023-03-20T23:25:16.480Z,9.27
2023-03-20T23:27:50.361Z,8.40
2023-03-20T23:30:16.946Z,8.80
2023-03-20T23:32:43.426Z,9.17
2023-03-20T23:35:09.952Z,8.70
2023-03-20T23:37:36.654Z,9.47
2023-03-20T23:40:04.621Z,8.70
2023-03-20T23:42:31.219Z,9.67
2023-03-20T23:45:04.490Z,8.57
2023-03-20T23:47:44.373Z,9.53
2023-03-20T23:50:17.225Z,7.87
2023-03-20T23:52:57.075Z,9.40
2023-03-20T23:55:28.126Z,7.30
2023-03-20T23:57:54.509Z,7.30
